Strona główna
METAR-TAF:

METAR-TAF

Lotnisko :

Port lotniczy Sármellék

Hévíz, Węgry

Szerokość geograficzna: 46-41-11N, Długość geograficzna: 017-09-33E, wysokość: 124 m

Aktualna obserwacja pogody

Raport powstał 31 minut temu, godzina 04:15 UTC
Cisza
Temperatura 1°C
Wilgotność 80%
Ciśnienie 1023 hPa
Widzialność: 9000 m

METAR: LHSM 090415Z AUTO 00000KT 9000 NCD 01/M02 Q1023

czas: 06:46 (04:46 UTC)


TAF: brakujący

Obserwacja i prognoza pogody dla ponad 4000 lotnisk (raport METAR i TAF).

Dostępne stacje oznaczono żółtymi i czerwonymi punktami na mapie.

Najedź kursorem aby zobaczyć nazwę stacji.

Kliknij aby zobaczyć obserwacje i prognozy pogody.

Aby zmienić mapę: kliknij na zielony przycisk z czarnym krzyżykiem, aby powiększyć; na zielony przycisk z myślnikiem, aby pomniejszyć; na zielone strzałki, aby przejść do map sąsiednich.


METAR-TAF: